Irene V — J8PS4 — position and weather

sailwx.info

Track history (hours):
 
Tides and Currents Weather Stations Pressure Air Temp Water Temp Dewpoint Dewpoint Depression Visibility Wind Speed Wind Dir Waves Ship Positions

Irene V

Last reported at 2015-Jun-16 19:08 UTC. Time now 2015-Jul-06 07:02 UTC.
Position N 17°45' W 063°04'.
Warning: this ship's position is 19 days out of date.

Length 72 m; draft 5.7 m.

Type: Cargo ship. MMSI: 377924000.

Date/timePositionNaut miles runAvg speedWind from/ knotsBaromVisibWave heightAir tempDewpointWater temp
2015-Jun-16 19:08N 17°45' W 063°04'5 9.4
2015-Jun-16 18:33N 17°51' W 063°03'10 9.5
2015-Jun-16 17:33N 18°00' W 063°03'0 0.2
2015-Jun-16 16:33N 18°00' W 063°03'0 0.0
2015-Jun-16 15:33N 18°00' W 063°03'0 0.0
2015-Jun-16 14:32N 18°00' W 063°03'0 0.0
2015-Jun-16 13:29N 18°00' W 063°03'0 0.0
2015-Jun-16 12:33N 18°00' W 063°03'0 0.0
2015-Jun-16 11:31N 18°00' W 063°03'0 0.0
2015-Jun-16 10:32N 18°00' W 063°03'0 0.0
2015-Jun-16 09:33N 18°00' W 063°03'0 0.0
2015-Jun-16 08:33N 18°00' W 063°03'0 0.0
2015-Jun-16 07:32N 18°00' W 063°03'0 0.0
2015-Jun-16 06:33N 18°00' W 063°03'0 0.0
2015-Jun-16 05:32N 18°00' W 063°03'0 0.0
2015-Jun-16 04:32N 18°00' W 063°03'0 0.0
2015-Jun-16 03:32N 18°00' W 063°03'0 0.0
2015-Jun-16 02:30N 18°00' W 063°03'0 0.0
2015-Jun-16 01:31N 18°00' W 063°03'0 0.0
2015-Jun-16 00:33N 18°00' W 063°03'0 0.0
2015-Jun-15 23:33N 18°00' W 063°03'0 0.0
2015-Jun-15 22:33N 18°00' W 063°03'0 0.0
2015-Jun-15 21:32N 18°00' W 063°03'0 0.0
2015-Jun-15 20:32N 18°00' W 063°03'0 0.0
2015-Jun-15 19:33N 18°00' W 063°03'0 0.0
2015-Jun-15 18:32N 18°00' W 063°03'0 0.0
2015-Jun-15 17:32N 18°00' W 063°03'0 0.0
2015-Jun-15 16:31N 18°00' W 063°03'0 0.0
2015-Jun-15 15:33N 18°00' W 063°03'0 0.0
2015-Jun-15 14:32N 18°00' W 063°03'0 0.0
2015-Jun-15 13:32N 18°00' W 063°03'1 1.2
2015-Jun-15 12:32N 18°00' W 063°04'3 3.2
2015-Jun-15 11:33N 17°58' W 063°07'8 7.9
2015-Jun-15 10:33N 17°51' W 063°07'9 7.9
2015-Jun-15 09:28N 17°42' W 063°06'81 7.2
2015-Jun-14 22:09N 16°30' W 062°28'119 7.9
2015-Jun-14 07:04N 14°38' W 061°46'  
Track history (hours):
 
Tides and Currents Weather Stations Pressure Air Temp Water Temp Dewpoint Dewpoint Depression Visibility Wind Speed Wind Dir Waves Ship Positions

Irene V

Last reported at 2015-Jun-16 19:08 UTC. Time now 2015-Jul-06 07:02 UTC.
Position N 17°45' W 063°04'.
Warning: this ship's position is 19 days out of date.

Length 72 m; draft 5.7 m.

Type: Cargo ship. MMSI: 377924000.

Date/timePositionNaut miles runAvg speedWind from/ knotsBaromVisibWave heightAir tempDewpointWater temp
2015-Jun-16 19:08N 17°45' W 063°04'5 9.4
2015-Jun-16 18:33N 17°51' W 063°03'10 9.5
2015-Jun-16 17:33N 18°00' W 063°03'0 0.2
2015-Jun-16 16:33N 18°00' W 063°03'0 0.0
2015-Jun-16 15:33N 18°00' W 063°03'0 0.0
2015-Jun-16 14:32N 18°00' W 063°03'0 0.0
2015-Jun-16 13:29N 18°00' W 063°03'0 0.0
2015-Jun-16 12:33N 18°00' W 063°03'0 0.0
2015-Jun-16 11:31N 18°00' W 063°03'0 0.0
2015-Jun-16 10:32N 18°00' W 063°03'0 0.0
2015-Jun-16 09:33N 18°00' W 063°03'0 0.0
2015-Jun-16 08:33N 18°00' W 063°03'0 0.0
2015-Jun-16 07:32N 18°00' W 063°03'0 0.0
2015-Jun-16 06:33N 18°00' W 063°03'0 0.0
2015-Jun-16 05:32N 18°00' W 063°03'0 0.0
2015-Jun-16 04:32N 18°00' W 063°03'0 0.0
2015-Jun-16 03:32N 18°00' W 063°03'0 0.0
2015-Jun-16 02:30N 18°00' W 063°03'0 0.0
2015-Jun-16 01:31N 18°00' W 063°03'0 0.0
2015-Jun-16 00:33N 18°00' W 063°03'0 0.0
2015-Jun-15 23:33N 18°00' W 063°03'0 0.0
2015-Jun-15 22:33N 18°00' W 063°03'0 0.0
2015-Jun-15 21:32N 18°00' W 063°03'0 0.0
2015-Jun-15 20:32N 18°00' W 063°03'0 0.0
2015-Jun-15 19:33N 18°00' W 063°03'0 0.0
2015-Jun-15 18:32N 18°00' W 063°03'0 0.0
2015-Jun-15 17:32N 18°00' W 063°03'0 0.0
2015-Jun-15 16:31N 18°00' W 063°03'0 0.0
2015-Jun-15 15:33N 18°00' W 063°03'0 0.0
2015-Jun-15 14:32N 18°00' W 063°03'0 0.0
2015-Jun-15 13:32N 18°00' W 063°03'1 1.2
2015-Jun-15 12:32N 18°00' W 063°04'3 3.2
2015-Jun-15 11:33N 17°58' W 063°07'8 7.9
2015-Jun-15 10:33N 17°51' W 063°07'9 7.9
2015-Jun-15 09:28N 17°42' W 063°06'81 7.2
2015-Jun-14 22:09N 16°30' W 062°28'119 7.9
2015-Jun-14 07:04N 14°38' W 061°46'  

Dump ship's entire track history